createdAt,value
2019-03-27T00:01:10.586Z,9.83
2019-03-27T00:06:19.781Z,10.33
2019-03-27T00:11:28.847Z,9.16
2019-03-27T00:16:37.954Z,7.90
2019-03-27T00:21:46.987Z,8.78
2019-03-27T00:26:56.130Z,9.26
2019-03-27T00:32:05.162Z,9.27
2019-03-27T00:37:14.274Z,9.53
2019-03-27T00:42:23.349Z,8.83
2019-03-27T00:47:32.542Z,8.66
2019-03-27T00:52:41.614Z,8.26
2019-03-27T00:57:50.742Z,9.52
2019-03-27T01:02:59.810Z,7.81
2019-03-27T01:08:09.011Z,7.44
2019-03-27T01:13:18.083Z,9.13
2019-03-27T01:18:27.207Z,8.50
2019-03-27T01:23:36.280Z,9.80
2019-03-27T01:28:45.405Z,8.46
2019-03-27T01:33:54.462Z,9.38
2019-03-27T01:39:03.613Z,9.02
2019-03-27T01:44:12.678Z,8.60
2019-03-27T01:49:21.835Z,9.47
2019-03-27T01:54:30.862Z,8.87
2019-03-27T01:59:40.026Z,8.11
2019-03-27T02:04:49.045Z,9.43
2019-03-27T02:09:58.134Z,8.66
2019-03-27T02:15:07.189Z,7.97
2019-03-27T02:20:14.837Z,7.79
2019-03-27T02:25:23.885Z,9.66
2019-03-27T02:30:33.111Z,7.93
2019-03-27T02:35:42.159Z,8.40
2019-03-27T02:40:51.307Z,7.86
2019-03-27T02:46:00.346Z,8.11
2019-03-27T02:51:09.417Z,8.74
2019-03-27T02:56:18.460Z,8.41
2019-03-27T03:01:27.606Z,7.91
2019-03-27T03:06:36.653Z,7.50
2019-03-27T03:11:45.806Z,7.93
2019-03-27T03:16:54.878Z,8.36
2019-03-27T03:22:04.006Z,8.19
2019-03-27T03:27:13.051Z,8.84
2019-03-27T03:32:22.142Z,7.13
2019-03-27T03:37:31.265Z,7.84
2019-03-27T03:42:40.403Z,7.75
2019-03-27T03:47:49.490Z,7.65
2019-03-27T03:52:58.600Z,7.29
2019-03-27T03:58:07.641Z,8.26
2019-03-27T04:03:16.756Z,6.94
2019-03-27T04:08:25.935Z,6.96
2019-03-27T04:13:35.063Z,6.41
2019-03-27T04:18:44.124Z,6.78
2019-03-27T04:23:53.235Z,6.24
2019-03-27T04:29:02.270Z,6.37
2019-03-27T04:34:11.614Z,6.90
2019-03-27T04:39:20.668Z,6.15
2019-03-27T04:44:29.858Z,7.29
2019-03-27T04:49:39.118Z,6.65
2019-03-27T04:54:48.362Z,6.62
2019-03-27T04:59:57.401Z,6.43
2019-03-27T05:05:06.477Z,5.92
2019-03-27T05:10:15.680Z,5.97
2019-03-27T05:15:25.421Z,5.53
2019-03-27T05:20:34.616Z,5.73
2019-03-27T05:25:43.854Z,6.06
2019-03-27T05:30:52.890Z,6.17
2019-03-27T05:36:02.113Z,5.52
2019-03-27T05:41:11.202Z,5.38
2019-03-27T05:46:20.538Z,5.71
2019-03-27T05:51:29.656Z,5.55
2019-03-27T05:56:39.018Z,4.94
2019-03-27T06:01:48.090Z,5.45
2019-03-27T06:06:57.418Z,5.03
2019-03-27T06:12:06.431Z,5.52
2019-03-27T06:17:15.806Z,6.15
2019-03-27T06:22:24.856Z,5.48
2019-03-27T06:27:34.479Z,5.70
2019-03-27T06:32:43.505Z,6.30
2019-03-27T06:37:52.911Z,6.01
2019-03-27T06:43:01.978Z,5.85
2019-03-27T06:48:11.198Z,6.16
2019-03-27T06:53:20.694Z,5.54
2019-03-27T06:58:29.903Z,5.98
2019-03-27T07:03:38.966Z,5.60
2019-03-27T07:08:48.212Z,4.81
2019-03-27T07:13:57.740Z,5.79
2019-03-27T07:19:07.024Z,5.62
2019-03-27T07:24:16.074Z,5.10
2019-03-27T07:29:25.563Z,5.13
2019-03-27T07:34:34.642Z,4.95
2019-03-27T07:39:43.869Z,5.15
2019-03-27T07:45:04.696Z,5.56
2019-03-27T07:49:52.309Z,5.19
2019-03-27T07:55:01.465Z,5.46
2019-03-27T08:00:10.765Z,4.71
2019-03-27T08:05:19.843Z,5.29
2019-03-27T08:10:28.998Z,4.98
2019-03-27T08:15:40.606Z,5.17
2019-03-27T08:20:46.721Z,4.98
2019-03-27T08:25:55.791Z,5.15
2019-03-27T08:31:04.859Z,6.26
2019-03-27T08:36:13.955Z,5.00
2019-03-27T08:41:23.226Z,5.52
2019-03-27T08:46:32.270Z,5.83
2019-03-27T08:51:41.357Z,5.42
2019-03-27T08:56:50.411Z,5.18
2019-03-27T09:01:59.557Z,5.65
2019-03-27T09:07:08.746Z,5.15
2019-03-27T09:12:17.822Z,5.28
2019-03-27T09:17:27.078Z,5.13
2019-03-27T09:22:36.200Z,5.71
2019-03-27T09:27:45.247Z,5.63
2019-03-27T09:32:54.442Z,5.64
2019-03-27T09:38:03.507Z,5.40
2019-03-27T09:43:12.626Z,5.84
2019-03-27T09:48:21.634Z,5.69
2019-03-27T09:53:30.750Z,6.39
2019-03-27T09:58:39.834Z,5.37
2019-03-27T10:03:48.973Z,6.08
2019-03-27T10:08:57.986Z,6.28
2019-03-27T10:14:07.106Z,5.72
2019-03-27T10:19:16.145Z,6.43
2019-03-27T10:24:25.297Z,6.29
2019-03-27T10:29:34.306Z,5.34
2019-03-27T10:34:43.441Z,5.78
2019-03-27T10:39:52.527Z,6.04
2019-03-27T10:45:05.255Z,5.75
2019-03-27T10:50:16.932Z,6.08
2019-03-27T10:55:13.038Z,6.14
2019-03-27T11:00:22.118Z,6.81
2019-03-27T11:05:31.180Z,6.00
2019-03-27T11:10:40.198Z,5.93
2019-03-27T11:15:49.383Z,6.06
2019-03-27T11:20:58.436Z,6.78
2019-03-27T11:26:07.587Z,6.81
2019-03-27T11:31:16.662Z,6.03
2019-03-27T11:36:25.870Z,6.58
2019-03-27T11:41:34.919Z,6.72
2019-03-27T11:46:44.107Z,6.03
2019-03-27T11:51:53.176Z,5.81
2019-03-27T11:57:02.321Z,5.96
2019-03-27T12:02:11.505Z,6.49
2019-03-27T12:07:20.762Z,4.98
2019-03-27T12:12:29.776Z,5.95
2019-03-27T12:17:38.905Z,6.36
2019-03-27T12:22:57.703Z,5.80
2019-03-27T12:27:57.612Z,6.17
2019-03-27T12:33:06.682Z,5.46
2019-03-27T12:38:15.789Z,6.65
2019-03-27T12:43:24.841Z,6.51
2019-03-27T12:48:33.978Z,5.87
2019-03-27T12:53:43.044Z,5.70
2019-03-27T12:58:52.178Z,6.37
2019-03-27T13:04:01.248Z,6.31
2019-03-27T13:09:10.405Z,6.43
2019-03-27T13:14:19.456Z,6.12
2019-03-27T13:19:29.122Z,6.51
2019-03-27T13:24:38.202Z,6.88
2019-03-27T13:29:47.339Z,6.69
2019-03-27T13:34:56.390Z,6.85
2019-03-27T13:40:05.528Z,6.69
2019-03-27T13:45:14.617Z,7.35
2019-03-27T13:50:23.717Z,7.15
2019-03-27T13:55:35.040Z,6.60
2019-03-27T14:00:41.373Z,8.18
2019-03-27T14:05:50.421Z,7.71
2019-03-27T14:10:59.537Z,7.31
2019-03-27T14:16:08.613Z,7.02
2019-03-27T14:21:17.767Z,7.32
2019-03-27T14:26:26.818Z,8.15
2019-03-27T14:31:35.942Z,7.80
2019-03-27T14:36:44.986Z,8.13
2019-03-27T14:41:54.113Z,8.24
2019-03-27T14:47:03.172Z,8.11
2019-03-27T14:52:12.238Z,8.11
2019-03-27T14:57:21.263Z,8.63
2019-03-27T15:02:30.338Z,8.25
2019-03-27T15:07:39.362Z,8.66
2019-03-27T15:12:48.496Z,9.82
2019-03-27T15:17:57.574Z,9.08
2019-03-27T15:23:06.705Z,8.52
2019-03-27T15:28:15.726Z,8.92
2019-03-27T15:33:25.557Z,7.69
2019-03-27T15:38:34.642Z,7.96
2019-03-27T15:43:43.763Z,7.53
2019-03-27T15:48:52.889Z,8.06
2019-03-27T15:54:01.972Z,8.07
2019-03-27T15:59:11.178Z,9.06
2019-03-27T16:04:20.682Z,8.33
2019-03-27T16:09:30.037Z,8.78
2019-03-27T16:14:39.181Z,8.61
2019-03-27T16:19:48.289Z,7.78
2019-03-27T16:24:57.465Z,8.24
2019-03-27T16:30:06.510Z,7.79
2019-03-27T16:35:15.644Z,8.21
2019-03-27T16:40:24.716Z,7.64
2019-03-27T16:45:33.856Z,8.42
2019-03-27T16:50:42.991Z,8.26
2019-03-27T16:55:52.171Z,7.73
2019-03-27T17:01:01.226Z,7.75
2019-03-27T17:06:10.446Z,7.71
2019-03-27T17:11:19.506Z,7.90
2019-03-27T17:16:28.923Z,6.98
2019-03-27T17:21:38.003Z,7.71
2019-03-27T17:26:47.182Z,7.26
2019-03-27T17:31:56.259Z,7.80
2019-03-27T17:37:05.372Z,6.90
2019-03-27T17:42:14.418Z,7.52
2019-03-27T17:47:23.537Z,7.48
2019-03-27T17:52:33.318Z,7.05
2019-03-27T17:57:42.476Z,6.45
2019-03-27T18:02:51.582Z,7.24
2019-03-27T18:08:00.666Z,6.92
2019-03-27T18:13:09.741Z,6.86
2019-03-27T18:18:18.862Z,6.50
2019-03-27T18:23:27.910Z,6.68
2019-03-27T18:28:37.007Z,7.81
2019-03-27T18:33:46.338Z,5.78
2019-03-27T18:38:55.901Z,6.39
2019-03-27T18:44:04.960Z,6.60
2019-03-27T18:49:14.277Z,6.59
2019-03-27T18:54:23.629Z,7.01
2019-03-27T18:59:31.981Z,6.53
2019-03-27T19:04:41.058Z,7.01
2019-03-27T19:09:50.147Z,6.96
2019-03-27T19:14:59.190Z,7.36
2019-03-27T19:20:08.342Z,7.57
2019-03-27T19:25:17.394Z,6.49
2019-03-27T19:30:26.523Z,6.59
2019-03-27T19:35:35.597Z,6.63
2019-03-27T19:40:44.738Z,6.18
2019-03-27T19:45:53.813Z,6.35
2019-03-27T19:51:02.930Z,6.91
2019-03-27T19:56:11.973Z,6.75
2019-03-27T20:01:21.141Z,6.06
2019-03-27T20:06:30.189Z,5.41
2019-03-27T20:11:40.132Z,6.12
2019-03-27T20:16:49.153Z,5.35
2019-03-27T20:21:58.286Z,6.49
2019-03-27T20:27:07.333Z,5.68
2019-03-27T20:32:16.470Z,5.75
2019-03-27T20:37:25.530Z,5.28
2019-03-27T20:42:34.642Z,5.61
2019-03-27T20:47:43.684Z,5.03
2019-03-27T20:52:52.867Z,5.85
2019-03-27T20:58:01.942Z,5.58
2019-03-27T21:03:11.012Z,5.29
2019-03-27T21:08:20.051Z,5.61
2019-03-27T21:13:29.253Z,4.64
2019-03-27T21:18:38.375Z,5.22
2019-03-27T21:23:47.498Z,5.22
2019-03-27T21:28:56.525Z,5.36
2019-03-27T21:34:05.861Z,5.96
2019-03-27T21:39:14.829Z,5.35
2019-03-27T21:44:23.951Z,6.11
2019-03-27T21:49:32.955Z,5.70
2019-03-27T21:54:42.234Z,5.83
2019-03-27T21:59:51.356Z,5.47
2019-03-27T22:05:00.467Z,5.81
2019-03-27T22:10:09.499Z,5.69
2019-03-27T22:15:18.721Z,5.67
2019-03-27T22:20:29.289Z,5.75
2019-03-27T22:25:35.851Z,4.95
2019-03-27T22:30:37.003Z,4.71
2019-03-27T22:35:46.282Z,5.07
2019-03-27T22:40:55.336Z,4.52
2019-03-27T22:46:04.658Z,4.76
2019-03-27T22:51:13.699Z,5.98
2019-03-27T22:56:22.852Z,5.30
2019-03-27T23:01:31.945Z,4.84
2019-03-27T23:06:41.124Z,4.99
2019-03-27T23:11:50.176Z,5.13
2019-03-27T23:16:59.454Z,5.60
2019-03-27T23:22:08.522Z,4.95
2019-03-27T23:27:17.699Z,5.28
2019-03-27T23:32:26.761Z,5.26
2019-03-27T23:37:35.873Z,5.31
2019-03-27T23:42:44.906Z,5.72
2019-03-27T23:47:54.043Z,4.91
2019-03-27T23:53:03.112Z,6.29
2019-03-27T23:58:12.265Z,5.00
